Time;durP1;ratioP1;P1;durP2;ratioP2;P2;SDS_P1;SDS_P2;PMS_P1;PMS_P2;Temp;Humidity;BMP_temperature;BMP_pressure;BME280_temperature;BME280_humidity;BME280_pressure;Samples;Min_cycle;Max_cycle;Signal;HPM_P1;HPM_P2
2021/05/07 00:01:07;;;;;;;4.70;4.30;;;7.70;99.90;;;;;;5013656;28;21298;-77
2021/05/07 00:03:33;;;;;;;5.60;5.00;;;7.70;99.90;;;;;;5014021;28;20442;-76
2021/05/07 00:05:59;;;;;;;5.00;4.50;;;7.80;99.90;;;;;;5013823;28;21133;-76
2021/05/07 00:08:26;;;;;;;5.97;5.43;;;7.70;99.90;;;;;;4995541;28;20216;-76
2021/05/07 00:10:53;;;;;;;5.07;4.57;;;7.70;99.90;;;;;;5013570;28;20501;-76
2021/05/07 00:13:19;;;;;;;5.53;5.03;;;7.70;99.90;;;;;;5013693;28;20450;-76
2021/05/07 00:15:44;;;;;;;4.10;3.70;;;7.70;99.90;;;;;;5014406;28;20902;-76
2021/05/07 00:18:10;;;;;;;5.27;4.77;;;7.70;99.90;;;;;;5020244;28;20464;-78
2021/05/07 00:20:35;;;;;;;5.07;4.60;;;7.60;99.90;;;;;;5033355;28;20175;-76
2021/05/07 00:23:01;;;;;;;8.73;4.93;;;7.60;99.90;;;;;;5033930;28;20663;-77
2021/05/07 00:25:27;;;;;;;5.43;4.40;;;7.60;99.90;;;;;;5035541;28;20164;-77
2021/05/07 00:28:06;;;;;;;5.87;5.30;;;7.60;99.90;;;;;;5034813;28;20198;-76
2021/05/07 00:30:33;;;;;;;4.73;4.23;;;7.60;99.90;;;;;;5033003;28;20202;-76
2021/05/07 00:32:59;;;;;;;5.87;5.27;;;7.60;99.90;;;;;;5034225;28;20407;-76
2021/05/07 00:35:24;;;;;;;6.47;5.63;;;7.60;99.90;;;;;;5033863;28;20425;-76
2021/05/07 00:37:50;;;;;;;7.37;5.03;;;7.60;99.90;;;;;;5032892;28;20298;-76
2021/05/07 00:40:17;;;;;;;6.63;5.30;;;7.50;99.90;;;;;;5032611;28;20203;-76
2021/05/07 00:42:42;;;;;;;6.90;4.80;;;7.50;99.90;;;;;;5032609;28;20444;-76
2021/05/07 00:45:09;;;;;;;8.70;5.83;;;7.40;99.90;;;;;;5032697;28;20406;-77
2021/05/07 00:47:39;;;;;;;4.97;4.47;;;7.40;99.90;;;;;;5032253;28;20275;-77
2021/05/07 00:50:06;;;;;;;6.40;5.80;;;7.40;99.90;;;;;;5032220;28;20430;-77
2021/05/07 00:52:37;;;;;;;6.23;5.30;;;7.40;99.90;;;;;;5032668;28;20991;-77
2021/05/07 00:55:06;;;;;;;6.50;4.90;;;7.40;99.90;;;;;;5032536;28;20970;-77
2021/05/07 00:57:34;;;;;;;6.73;5.03;;;7.50;99.90;;;;;;5032216;28;20466;-77
2021/05/07 01:00:01;;;;;;;7.10;6.10;;;7.50;99.90;;;;;;5032525;28;20418;-77
2021/05/07 01:02:27;;;;;;;7.20;5.20;;;7.60;99.90;;;;;;5032307;28;20932;-76
2021/05/07 01:04:53;;;;;;;6.93;5.50;;;7.60;99.90;;;;;;5032450;28;20407;-75
2021/05/07 01:07:19;;;;;;;5.37;4.83;;;7.60;99.90;;;;;;5029785;28;20211;-77
2021/05/07 01:09:48;;;;;;;5.53;5.03;;;7.70;99.90;;;;;;5013610;28;20419;-76
2021/05/07 01:12:13;;;;;;;5.80;5.20;;;7.60;99.90;;;;;;5013368;28;20557;-77
2021/05/07 01:14:39;;;;;;;5.77;5.10;;;7.50;99.90;;;;;;5014131;28;20502;-77
2021/05/07 01:17:04;;;;;;;5.80;5.13;;;7.60;99.90;;;;;;5013767;28;20204;-76
2021/05/07 01:19:30;;;;;;;5.43;4.90;;;7.60;99.90;;;;;;5012902;28;20184;-76
2021/05/07 01:21:56;;;;;;;6.00;5.47;;;7.60;99.90;;;;;;4995359;28;20176;-76
2021/05/07 01:24:25;;;;;;;5.80;5.20;;;7.50;99.90;;;;;;5012641;28;20231;-76
2021/05/07 01:26:52;;;;;;;5.80;5.30;;;7.50;99.90;;;;;;5012011;28;20946;-76
2021/05/07 01:29:17;;;;;;;6.07;5.40;;;7.50;99.90;;;;;;5012303;28;20413;-77
2021/05/07 01:31:46;;;;;;;5.90;5.30;;;7.50;99.90;;;;;;5012357;28;20463;-77
2021/05/07 01:34:11;;;;;;;6.27;5.67;;;7.50;99.90;;;;;;5013198;28;20176;-77
2021/05/07 01:36:37;;;;;;;5.87;5.33;;;7.40;99.90;;;;;;5012856;28;21252;-77
2021/05/07 01:39:03;;;;;;;6.73;6.03;;;7.50;99.90;;;;;;5016670;28;20175;-77
2021/05/07 01:41:28;;;;;;;6.70;6.10;;;7.50;99.90;;;;;;5021538;28;20175;-77
2021/05/07 01:43:55;;;;;;;6.87;4.90;;;7.50;99.90;;;;;;5015536;28;20411;-77
2021/05/07 01:46:20;;;;;;;6.50;5.30;;;7.40;99.90;;;;;;5013491;28;20197;-77
2021/05/07 01:48:46;;;;;;;6.13;5.20;;;7.40;99.90;;;;;;5014124;28;20423;-77
2021/05/07 01:51:11;;;;;;;6.67;5.97;;;7.30;99.90;;;;;;5014029;28;20810;-77
2021/05/07 01:53:37;;;;;;;6.90;5.57;;;7.30;99.90;;;;;;5012670;28;20169;-77
2021/05/07 01:56:02;;;;;;;5.83;5.30;;;7.30;99.90;;;;;;5013717;28;20646;-77
2021/05/07 01:58:28;;;;;;;6.53;5.93;;;7.30;99.90;;;;;;5011509;28;20211;-77
2021/05/07 02:00:54;;;;;;;5.93;5.33;;;7.30;99.90;;;;;;5013678;28;20839;-77
2021/05/07 02:03:19;;;;;;;6.13;5.53;;;7.30;99.90;;;;;;5015964;28;20169;-77
2021/05/07 02:05:45;;;;;;;5.93;5.33;;;7.30;99.90;;;;;;5017730;28;20407;-77
2021/05/07 02:08:11;;;;;;;6.17;5.40;;;7.20;99.90;;;;;;5016524;28;20200;-77
2021/05/07 02:10:38;;;;;;;6.53;5.87;;;7.30;99.90;;;;;;5016769;28;20192;-77
2021/05/07 02:13:09;;;;;;;6.43;5.73;;;7.20;99.90;;;;;;5016587;28;20429;-77
2021/05/07 02:15:35;;;;;;;6.83;5.30;;;7.20;99.90;;;;;;4998104;28;20434;-77
2021/05/07 02:18:01;;;;;;;8.63;5.73;;;7.20;99.90;;;;;;5015299;28;20921;-77
2021/05/07 02:20:28;;;;;;;6.10;5.50;;;7.30;99.90;;;;;;5016774;28;20403;-77
2021/05/07 02:22:54;;;;;;;5.97;5.37;;;7.30;99.90;;;;;;5027092;28;20472;-77
2021/05/07 02:25:22;;;;;;;6.87;5.87;;;7.30;99.90;;;;;;5036557;28;20410;-77
2021/05/07 02:27:49;;;;;;;6.67;6.00;;;7.20;99.90;;;;;;5035894;28;20438;-77
2021/05/07 02:30:18;;;;;;;6.40;5.00;;;7.30;99.90;;;;;;5035378;28;20410;-76
2021/05/07 02:32:44;;;;;;;7.33;6.37;;;7.20;99.90;;;;;;5035255;28;20454;-77
2021/05/07 02:35:10;;;;;;;6.30;5.77;;;7.20;99.90;;;;;;5035764;28;20442;-77
2021/05/07 02:37:36;;;;;;;7.13;5.73;;;7.20;99.90;;;;;;5035057;28;20206;-77
2021/05/07 02:40:03;;;;;;;6.50;5.77;;;7.20;99.90;;;;;;5035737;28;20398;-77
2021/05/07 02:42:28;;;;;;;5.73;5.13;;;7.20;99.90;;;;;;5017124;28;20172;-78
2021/05/07 02:44:54;;;;;;;7.13;6.50;;;7.20;99.90;;;;;;5034977;28;20451;-76
2021/05/07 02:47:20;;;;;;;5.70;5.20;;;7.10;99.90;;;;;;5035136;28;20180;-77
2021/05/07 02:49:47;;;;;;;6.50;5.70;;;7.10;99.90;;;;;;5035114;28;20199;-78
2021/05/07 02:52:12;;;;;;;6.83;6.23;;;7.10;99.90;;;;;;5034917;28;20678;-77
2021/05/07 02:54:38;;;;;;;6.67;6.07;;;7.00;99.90;;;;;;5036489;28;20405;-77
2021/05/07 02:57:04;;;;;;;8.00;5.53;;;7.00;99.90;;;;;;5035453;28;20202;-77
2021/05/07 02:59:29;;;;;;;8.80;6.47;;;7.00;99.90;;;;;;5035533;28;20588;-79
2021/05/07 03:01:55;;;;;;;8.23;6.60;;;6.90;99.90;;;;;;5035082;28;20510;-77
2021/05/07 03:04:21;;;;;;;6.93;6.20;;;6.90;99.90;;;;;;5034611;28;20164;-76
2021/05/07 03:06:48;;;;;;;9.23;7.20;;;6.90;99.90;;;;;;5034524;28;20770;-78
2021/05/07 03:09:14;;;;;;;7.43;6.40;;;7.00;99.90;;;;;;5015369;28;20439;-77
2021/05/07 03:11:40;;;;;;;8.60;7.13;;;7.00;99.90;;;;;;5016203;28;20829;-77
2021/05/07 03:14:06;;;;;;;7.90;6.33;;;7.10;99.90;;;;;;5018093;28;20399;-77
2021/05/07 03:16:31;;;;;;;6.53;5.50;;;7.10;99.90;;;;;;5016803;28;20176;-77
2021/05/07 03:18:57;;;;;;;6.40;5.80;;;7.10;99.90;;;;;;5015836;28;20419;-77
2021/05/07 03:21:23;;;;;;;7.07;5.57;;;7.10;99.90;;;;;;5016106;28;20206;-77
2021/05/07 03:23:48;;;;;;;7.73;5.70;;;7.00;99.90;;;;;;5014794;28;20264;-76
2021/05/07 03:26:14;;;;;;;5.63;5.13;;;7.00;99.90;;;;;;5014115;28;20940;-76
2021/05/07 03:28:40;;;;;;;7.00;5.97;;;7.00;99.90;;;;;;5016152;28;20196;-77
2021/05/07 03:31:08;;;;;;;6.43;5.77;;;7.00;99.90;;;;;;5015857;28;20786;-77
2021/05/07 03:33:35;;;;;;;6.43;5.83;;;7.00;99.90;;;;;;4998370;28;20258;-77
2021/05/07 03:36:01;;;;;;;7.07;5.33;;;7.00;99.90;;;;;;5016301;28;20418;-77
2021/05/07 03:38:26;;;;;;;8.50;6.70;;;7.00;99.90;;;;;;5015521;28;20427;-77
2021/05/07 03:40:52;;;;;;;7.30;6.60;;;7.00;99.90;;;;;;5015707;28;20255;-77
2021/05/07 03:43:17;;;;;;;6.80;6.13;;;7.00;99.90;;;;;;5015046;28;20255;-77
2021/05/07 03:45:43;;;;;;;11.27;10.10;;;7.10;99.90;;;;;;5014228;28;20708;-77
2021/05/07 03:48:19;;;;;;;15.30;13.63;;;7.10;99.90;;;;;;5014406;28;20192;-77
2021/05/07 03:50:46;;;;;;;16.20;13.77;;;7.20;99.90;;;;;;5015591;28;20227;-78
2021/05/07 03:53:13;;;;;;;19.70;16.67;;;7.20;99.90;;;;;;5015799;28;20416;-76
2021/05/07 03:55:39;;;;;;;20.60;18.50;;;7.20;99.90;;;;;;5015678;28;20417;-77
2021/05/07 03:58:05;;;;;;;21.03;18.83;;;7.20;99.90;;;;;;5017111;28;20463;-77
2021/05/07 04:00:31;;;;;;;20.63;18.37;;;7.30;99.90;;;;;;5017523;28;20415;-77
2021/05/07 04:02:56;;;;;;;21.50;17.50;;;7.30;99.90;;;;;;5017624;28;20925;-77
2021/05/07 04:05:22;;;;;;;16.43;14.63;;;7.20;99.90;;;;;;5018529;28;20644;-76
2021/05/07 04:07:55;;;;;;;11.80;10.70;;;7.30;99.90;;;;;;5001128;28;20664;-76
2021/05/07 04:10:21;;;;;;;11.50;8.40;;;7.20;99.90;;;;;;4996715;28;20525;-77
2021/05/07 04:15:13;;;;;;;13.30;11.27;;;7.30;99.90;;;;;;5003142;28;20487;-77
2021/05/07 04:17:38;;;;;;;23.03;17.80;;;7.30;99.90;;;;;;4994521;28;20196;-77
2021/05/07 04:20:05;;;;;;;26.13;21.63;;;7.30;99.90;;;;;;4994920;28;20495;-77
2021/05/07 04:22:31;;;;;;;25.50;19.10;;;7.20;99.90;;;;;;4994910;28;20529;-77
2021/05/07 04:24:57;;;;;;;23.90;18.53;;;7.20;99.90;;;;;;4994963;28;20512;-76
2021/05/07 04:27:22;;;;;;;17.37;15.67;;;7.30;99.90;;;;;;4994702;28;20200;-77
2021/05/07 04:29:48;;;;;;;17.63;14.50;;;7.30;99.90;;;;;;5006698;28;20185;-77
2021/05/07 04:32:13;;;;;;;10.50;9.40;;;7.30;99.90;;;;;;5014144;28;20196;-77
2021/05/07 04:34:39;;;;;;;12.60;8.83;;;7.20;99.90;;;;;;4996533;28;20173;-77
2021/05/07 04:37:04;;;;;;;11.30;8.13;;;7.20;99.90;;;;;;4995704;28;20590;-77
2021/05/07 04:39:30;;;;;;;11.50;7.33;;;7.10;99.90;;;;;;4996834;28;20181;-77
2021/05/07 04:41:55;;;;;;;10.27;7.90;;;7.20;99.90;;;;;;4997944;28;20180;-77
2021/05/07 04:44:21;;;;;;;10.90;8.87;;;7.20;99.90;;;;;;4994658;28;20219;-77
2021/05/07 04:46:46;;;;;;;8.03;7.23;;;7.20;99.90;;;;;;4998298;28;20542;-77
2021/05/07 04:49:12;;;;;;;7.83;7.00;;;7.30;99.90;;;;;;5013718;28;20192;-78
2021/05/07 04:51:37;;;;;;;11.13;9.37;;;7.40;99.90;;;;;;5014266;28;20200;-76
2021/05/07 04:54:04;;;;;;;10.67;8.97;;;7.30;99.90;;;;;;5010469;28;20168;-76
2021/05/07 04:56:29;;;;;;;9.53;8.57;;;7.30;99.90;;;;;;5015039;28;20169;-77
2021/05/07 04:58:55;;;;;;;9.70;8.33;;;7.30;99.90;;;;;;5001923;28;20443;-77
2021/05/07 05:01:20;;;;;;;10.67;8.10;;;7.30;99.90;;;;;;5029670;28;20499;-76
2021/05/07 05:03:46;;;;;;;10.30;8.17;;;7.20;99.90;;;;;;5030010;28;20205;-77
2021/05/07 05:06:11;;;;;;;8.87;7.90;;;7.00;99.90;;;;;;5013257;28;20187;-77
2021/05/07 05:08:37;;;;;;;13.63;9.57;;;7.10;99.90;;;;;;5016962;28;20287;-77
2021/05/07 05:11:02;;;;;;;8.13;7.33;;;7.20;99.90;;;;;;5016148;28;20200;-77
2021/05/07 05:13:28;;;;;;;9.83;6.63;;;7.00;99.90;;;;;;5014458;28;20172;-77
2021/05/07 05:15:54;;;;;;;9.10;6.43;;;7.00;99.90;;;;;;5013650;28;20175;-76
2021/05/07 05:18:33;;;;;;;6.13;5.07;;;6.90;99.90;;;;;;5012256;28;20184;-77
2021/05/07 05:21:00;;;;;;;8.90;6.10;;;6.60;99.90;;;;;;5011447;28;20941;-76
2021/05/07 05:23:27;;;;;;;6.07;4.90;;;6.50;99.90;;;;;;5013265;28;20415;-76
2021/05/07 05:25:53;;;;;;;5.30;4.33;;;6.40;99.90;;;;;;5005322;28;20489;-77
2021/05/07 05:28:19;;;;;;;4.43;4.03;;;6.50;99.90;;;;;;4992759;28;20436;-77
2021/05/07 05:30:45;;;;;;;5.17;3.90;;;6.50;99.90;;;;;;4992968;28;20451;-77
2021/05/07 05:33:11;;;;;;;4.10;3.70;;;6.60;99.90;;;;;;4992791;28;20511;-77
2021/05/07 05:35:36;;;;;;;5.30;3.53;;;6.60;99.90;;;;;;4993582;28;20456;-78
2021/05/07 05:38:03;;;;;;;5.03;4.20;;;6.70;99.90;;;;;;4993513;28;20557;-76
2021/05/07 05:40:29;;;;;;;4.13;2.97;;;6.60;99.90;;;;;;4992461;28;20169;-75
2021/05/07 05:42:55;;;;;;;5.13;3.60;;;6.50;99.90;;;;;;5000969;28;20434;-77
2021/05/07 05:45:22;;;;;;;3.27;2.97;;;6.60;99.90;;;;;;5013380;28;20708;-77
2021/05/07 05:47:48;;;;;;;5.97;3.40;;;6.70;99.90;;;;;;5000514;28;20547;-77
2021/05/07 05:50:13;;;;;;;4.43;3.40;;;6.80;99.90;;;;;;4997219;28;20447;-76
2021/05/07 05:52:39;;;;;;;5.40;3.77;;;6.90;99.90;;;;;;5014448;28;20180;-78
2021/05/07 05:55:05;;;;;;;4.40;2.90;;;6.90;99.90;;;;;;5012808;28;20242;-77
2021/05/07 05:57:32;;;;;;;6.90;3.43;;;6.90;99.90;;;;;;5013324;28;20203;-77
2021/05/07 05:59:58;;;;;;;4.43;3.20;;;6.80;99.90;;;;;;5015443;28;20403;-77
2021/05/07 06:02:23;;;;;;;5.40;4.20;;;6.70;99.90;;;;;;5012450;28;20403;-77
2021/05/07 06:04:48;;;;;;;4.20;3.60;;;6.80;99.90;;;;;;5012273;28;20177;-77
2021/05/07 06:07:14;;;;;;;3.40;3.10;;;6.80;99.90;;;;;;5012277;28;20194;-77
2021/05/07 06:09:40;;;;;;;3.50;3.17;;;6.90;99.90;;;;;;5012612;28;20670;-77
2021/05/07 06:12:07;;;;;;;5.97;3.30;;;7.10;99.90;;;;;;5012729;28;20235;-77
2021/05/07 06:14:35;;;;;;;5.53;2.97;;;7.30;99.90;;;;;;5015788;28;20165;-77
2021/05/07 06:17:01;;;;;;;3.33;2.80;;;7.30;99.90;;;;;;5014670;28;21015;-77
2021/05/07 06:19:26;;;;;;;4.53;3.13;;;7.20;99.90;;;;;;5014425;28;20411;-77
2021/05/07 06:21:52;;;;;;;3.67;3.20;;;7.20;99.90;;;;;;5014096;28;20662;-77
2021/05/07 06:24:18;;;;;;;4.93;3.40;;;7.10;99.90;;;;;;5013462;28;20180;-78
2021/05/07 06:26:43;;;;;;;4.00;2.60;;;7.00;99.90;;;;;;5016256;28;20191;-78
2021/05/07 06:29:09;;;;;;;2.67;2.40;;;7.10;99.90;;;;;;5014819;28;20172;-76
2021/05/07 06:31:34;;;;;;;2.50;2.13;;;7.10;99.90;;;;;;5019238;28;20196;-76
2021/05/07 06:34:00;;;;;;;4.83;2.67;;;7.20;99.90;;;;;;5020741;28;20176;-78
2021/05/07 06:36:27;;;;;;;3.57;2.43;;;7.00;99.90;;;;;;5020957;28;20165;-76
2021/05/07 06:38:53;;;;;;;2.30;2.10;;;7.00;99.90;;;;;;5021382;28;20215;-76
2021/05/07 06:41:21;;;;;;;4.30;2.37;;;7.00;99.90;;;;;;5018699;28;20411;-76
2021/05/07 06:43:46;;;;;;;6.93;2.60;;;7.00;99.90;;;;;;5013121;28;20239;-77
2021/05/07 06:46:12;;;;;;;3.43;2.43;;;7.10;99.90;;;;;;5012809;28;20438;-78
2021/05/07 06:48:37;;;;;;;4.60;2.40;;;6.80;99.90;;;;;;5014282;28;20335;-77
2021/05/07 06:51:03;;;;;;;5.03;2.70;;;6.80;99.90;;;;;;5017819;28;20196;-77
2021/05/07 06:53:28;;;;;;;6.33;3.40;;;6.80;99.90;;;;;;5016546;28;20172;-77
2021/05/07 06:55:54;;;;;;;4.30;2.17;;;6.70;99.90;;;;;;5016205;28;20259;-77
2021/05/07 06:58:19;;;;;;;4.57;2.37;;;6.70;99.90;;;;;;5015484;28;20199;-77
2021/05/07 07:00:45;;;;;;;3.50;2.40;;;6.70;99.90;;;;;;5012180;28;20180;-76
2021/05/07 07:03:10;;;;;;;4.80;2.50;;;6.60;99.90;;;;;;5014912;28;20628;-77
2021/05/07 07:05:36;;;;;;;5.70;2.50;;;6.40;99.90;;;;;;5015042;28;20172;-77
2021/05/07 07:08:01;;;;;;;4.00;2.30;;;6.40;99.90;;;;;;5014853;28;20219;-78
2021/05/07 07:10:27;;;;;;;3.70;3.03;;;6.50;99.90;;;;;;5015091;28;20211;-77
2021/05/07 07:12:52;;;;;;;5.20;3.33;;;6.50;99.90;;;;;;5015682;28;20227;-77
2021/05/07 07:15:18;;;;;;;5.20;2.20;;;6.40;99.90;;;;;;5014766;28;20260;-77
2021/05/07 07:17:43;;;;;;;3.17;2.40;;;6.40;99.90;;;;;;5014663;28;20651;-77
2021/05/07 07:20:09;;;;;;;3.53;2.23;;;6.50;99.90;;;;;;5015143;28;20176;-78
2021/05/07 07:22:35;;;;;;;7.13;2.77;;;6.40;99.90;;;;;;5015958;28;20196;-78
2021/05/07 07:25:00;;;;;;;3.80;2.40;;;6.40;99.90;;;;;;5016222;28;20936;-78
2021/05/07 07:27:25;;;;;;;4.77;2.60;;;6.20;99.90;;;;;;5016319;28;20267;-78
2021/05/07 07:29:51;;;;;;;3.30;2.20;;;6.20;99.90;;;;;;5017004;28;20179;-78
2021/05/07 07:32:19;;;;;;;2.83;2.37;;;6.10;99.90;;;;;;5016699;28;20250;-78
2021/05/07 07:34:45;;;;;;;5.07;3.03;;;6.10;99.90;;;;;;5015975;28;20239;-77
2021/05/07 07:37:10;;;;;;;2.83;2.60;;;6.00;99.90;;;;;;5016820;28;20466;-78
2021/05/07 07:39:37;;;;;;;5.03;2.33;;;5.90;99.90;;;;;;5017182;28;20191;-78
2021/05/07 07:42:03;;;;;;;5.00;3.17;;;6.10;99.90;;;;;;5016767;28;20251;-78
2021/05/07 07:44:29;;;;;;;7.30;2.43;;;6.20;99.90;;;;;;5015900;28;20513;-78
2021/05/07 07:46:54;;;;;;;5.83;3.30;;;6.10;99.90;;;;;;5015561;28;20219;-78
2021/05/07 07:49:20;;;;;;;4.43;3.57;;;6.00;99.90;;;;;;5015887;28;20273;-79
2021/05/07 07:51:46;;;;;;;8.57;2.97;;;5.90;99.90;;;;;;5015706;28;20204;-78
2021/05/07 07:54:12;;;;;;;2.90;2.57;;;5.90;99.90;;;;;;5015296;28;20179;-76
2021/05/07 07:56:38;;;;;;;3.90;3.50;;;5.70;99.90;;;;;;5014921;28;20183;-78
2021/05/07 07:59:04;;;;;;;4.17;3.33;;;5.60;99.90;;;;;;5001320;28;20411;-78
2021/05/07 08:01:29;;;;;;;5.00;3.17;;;5.60;99.90;;;;;;5012089;28;20435;-78
2021/05/07 08:03:55;;;;;;;12.10;3.60;;;5.40;99.90;;;;;;5016864;28;20183;-78
2021/05/07 08:06:21;;;;;;;6.90;3.13;;;5.40;99.90;;;;;;5015574;28;20199;-77
2021/05/07 08:08:48;;;;;;;4.10;3.53;;;5.50;99.90;;;;;;5014007;28;20462;-78
2021/05/07 08:11:13;;;;;;;7.73;4.20;;;5.40;99.90;;;;;;5014207;28;20533;-78
2021/05/07 08:13:39;;;;;;;7.13;4.53;;;5.30;99.90;;;;;;5015372;28;20443;-77
2021/05/07 08:16:05;;;;;;;4.67;2.80;;;5.40;99.90;;;;;;5014701;28;20515;-76
2021/05/07 08:18:31;;;;;;;4.73;3.03;;;5.40;99.90;;;;;;5014010;28;20192;-76
2021/05/07 08:20:56;;;;;;;6.10;3.37;;;5.30;99.90;;;;;;5013824;28;20786;-75
2021/05/07 08:23:21;;;;;;;3.80;2.83;;;5.30;99.90;;;;;;5013706;28;20172;-77
2021/05/07 08:25:47;;;;;;;7.23;2.93;;;5.20;99.90;;;;;;5013555;28;20180;-77
2021/05/07 08:28:13;;;;;;;4.57;3.50;;;5.10;99.90;;;;;;5013262;28;20578;-78
2021/05/07 08:30:38;;;;;;;3.90;3.00;;;5.10;99.90;;;;;;5013633;28;20451;-77
2021/05/07 08:33:04;;;;;;;3.33;3.03;;;5.00;99.90;;;;;;5013028;28;20180;-77
2021/05/07 08:35:32;;;;;;;2.87;2.67;;;4.70;99.90;;;;;;5013619;28;20179;-77
2021/05/07 08:37:58;;;;;;;5.97;2.70;;;4.70;99.90;;;;;;5013234;28;20563;-77
2021/05/07 08:40:23;;;;;;;3.70;2.73;;;4.70;99.90;;;;;;5014157;28;20412;-79
2021/05/07 08:42:49;;;;;;;3.30;3.00;;;4.60;99.90;;;;;;5014491;28;20648;-78
2021/05/07 08:45:15;;;;;;;4.20;2.60;;;4.50;99.90;;;;;;5014545;28;20191;-78
2021/05/07 08:47:43;;;;;;;2.60;2.17;;;4.30;99.90;;;;;;5013908;28;20220;-78
2021/05/07 08:50:09;;;;;;;2.77;2.30;;;4.30;99.90;;;;;;4996364;28;20451;-77
2021/05/07 08:52:35;;;;;;;7.83;3.00;;;4.20;99.90;;;;;;5013875;28;20455;-78
2021/05/07 08:55:01;;;;;;;3.30;2.43;;;4.20;99.90;;;;;;5013823;28;20399;-78
2021/05/07 08:57:27;;;;;;;5.10;2.73;;;4.30;99.90;;;;;;5013723;28;20687;-78
2021/05/07 08:59:52;;;;;;;4.57;2.60;;;4.20;99.90;;;;;;5001636;28;20420;-78
2021/05/07 09:02:26;;;;;;;3.40;2.73;;;4.10;99.90;;;;;;5001079;28;20184;-77
2021/05/07 09:04:53;;;;;;;3.50;3.00;;;4.20;99.90;;;;;;5014017;28;20519;-77
2021/05/07 09:07:18;;;;;;;4.60;2.90;;;4.10;99.90;;;;;;5014844;28;20442;-76
2021/05/07 09:09:49;;;;;;;5.00;4.50;;;4.10;99.90;;;;;;4996968;28;20453;-78
2021/05/07 09:12:24;;;;;;;5.60;3.50;;;4.10;99.90;;;;;;5012184;28;20614;-77
2021/05/07 09:14:50;;;;;;;3.80;2.87;;;3.90;99.90;;;;;;5012500;28;20638;-77
2021/05/07 09:17:22;;;;;;;3.30;2.93;;;3.80;99.90;;;;;;5005790;28;20448;-78
2021/05/07 09:19:48;;;;;;;5.33;3.33;;;3.80;99.90;;;;;;4993528;28;20652;-77
2021/05/07 09:22:25;;;;;;;4.20;3.80;;;3.70;99.90;;;;;;4992757;28;20404;-78
2021/05/07 09:25:01;;;;;;;3.57;3.27;;;3.60;99.90;;;;;;5000897;28;20497;-78
2021/05/07 09:27:26;;;;;;;3.70;3.10;;;3.50;99.90;;;;;;5013039;28;20423;-78
2021/05/07 09:29:52;;;;;;;3.40;3.10;;;3.50;99.90;;;;;;5008098;28;20798;-77
2021/05/07 09:32:28;;;;;;;3.27;2.53;;;3.50;99.90;;;;;;5000412;28;20212;-78
2021/05/07 09:35:04;;;;;;;2.90;2.60;;;3.40;99.90;;;;;;4993220;28;20540;-77
2021/05/07 09:37:30;;;;;;;5.20;3.03;;;3.30;99.90;;;;;;4994213;28;20450;-78
2021/05/07 09:39:55;;;;;;;4.90;2.80;;;3.00;99.90;;;;;;5011878;28;20419;-77
2021/05/07 09:42:22;;;;;;;2.87;2.67;;;3.20;99.90;;;;;;5012026;28;20168;-77
2021/05/07 09:44:48;;;;;;;5.50;2.87;;;3.10;99.90;;;;;;5011851;28;20164;-77
2021/05/07 09:47:14;;;;;;;3.63;2.87;;;3.10;99.90;;;;;;5009627;28;20934;-77
2021/05/07 09:49:40;;;;;;;4.03;3.67;;;3.10;99.90;;;;;;5011772;28;20408;-77
2021/05/07 09:52:06;;;;;;;3.57;3.27;;;3.00;99.90;;;;;;5013373;28;20191;-79
2021/05/07 09:54:31;;;;;;;3.10;2.70;;;3.10;99.90;;;;;;5008599;28;20828;-77
2021/05/07 09:56:58;;;;;;;3.20;2.53;;;2.90;99.90;;;;;;4999854;28;20231;-78
2021/05/07 09:59:23;;;;;;;3.17;2.60;;;3.20;99.90;;;;;;4999307;28;20161;-78
2021/05/07 10:01:50;;;;;;;3.93;2.30;;;3.40;99.90;;;;;;5012460;28;20411;-77
2021/05/07 10:04:16;;;;;;;5.03;3.40;;;3.60;99.90;;;;;;5012832;28;20192;-79
2021/05/07 10:06:42;;;;;;;3.80;3.50;;;3.90;99.90;;;;;;5013458;28;20421;-78
2021/05/07 10:09:10;;;;;;;5.13;3.90;;;4.00;99.90;;;;;;5011924;28;20493;-77
2021/05/07 10:11:43;;;;;;;4.97;3.00;;;4.30;99.90;;;;;;5011867;28;20501;-78
2021/05/07 10:14:14;;;;;;;2.70;2.50;;;4.00;99.90;;;;;;5012686;28;20438;-78
2021/05/07 10:16:41;;;;;;;1.77;1.50;;;4.10;99.90;;;;;;5017188;28;20449;-78
2021/05/07 10:19:08;;;;;;;1.73;1.50;;;4.00;99.90;;;;;;5015429;28;20549;-79
2021/05/07 10:21:38;;;;;;;2.07;1.97;;;4.10;99.90;;;;;;5013954;28;20418;-77
2021/05/07 10:24:09;;;;;;;1.63;1.53;;;4.20;99.90;;;;;;5013744;28;20453;-78
2021/05/07 10:26:48;;;;;;;1.70;1.60;;;4.50;99.90;;;;;;5016905;28;20415;-78
2021/05/07 10:29:17;;;;;;;2.80;2.33;;;4.40;99.90;;;;;;5016286;28;20422;-77
2021/05/07 10:31:51;;;;;;;2.50;1.57;;;4.50;99.90;;;;;;5027038;28;20468;-77
2021/05/07 10:34:18;;;;;;;1.57;1.47;;;4.60;99.90;;;;;;5024764;28;20508;-77
2021/05/07 10:36:53;;;;;;;2.13;1.93;;;4.60;99.90;;;;;;5017135;28;20423;-78
2021/05/07 10:39:19;;;;;;;2.57;2.37;;;5.30;99.90;;;;;;5017339;28;20414;-78
2021/05/07 10:41:46;;;;;;;1.70;1.60;;;5.60;99.90;;;;;;5008604;28;20443;-77
2021/05/07 10:44:13;;;;;;;2.10;1.90;;;5.80;99.90;;;;;;5008916;28;20930;-76
2021/05/07 10:46:40;;;;;;;2.17;1.70;;;5.80;99.90;;;;;;5018624;28;20466;-79
2021/05/07 10:49:05;;;;;;;2.77;2.30;;;6.10;99.90;;;;;;5019660;28;20459;-78
2021/05/07 10:51:31;;;;;;;2.60;1.83;;;6.20;99.90;;;;;;5020022;28;20597;-78
2021/05/07 10:54:14;;;;;;;1.63;1.40;;;6.30;99.90;;;;;;5018878;28;20190;-79
2021/05/07 10:56:42;;;;;;;1.50;1.40;;;6.90;99.90;;;;;;5018901;28;20251;-80
2021/05/07 10:59:14;;;;;;;2.00;1.57;;;7.50;99.90;;;;;;5017845;28;20403;-78
2021/05/07 11:01:41;;;;;;;1.43;1.27;;;7.00;99.90;;;;;;5017571;28;20442;-78
2021/05/07 11:04:12;;;;;;;3.20;1.53;;;6.60;99.90;;;;;;5027013;28;20493;-78
2021/05/07 11:06:42;;;;;;;2.90;1.47;;;6.90;99.90;;;;;;5017361;28;20454;-78
2021/05/07 11:09:23;;;;;;;1.83;1.73;;;7.00;99.90;;;;;;5017200;28;20438;-78
2021/05/07 11:11:51;;;;;;;4.73;1.67;;;7.50;99.90;;;;;;5016677;28;20455;-78
2021/05/07 11:14:19;;;;;;;4.80;1.70;;;7.90;99.90;;;;;;5016486;28;20490;-78
2021/05/07 11:16:46;;;;;;;2.53;1.90;;;7.90;99.90;;;;;;5010272;28;20424;-78
2021/05/07 11:19:34;;;;;;;2.20;1.70;;;8.10;99.90;;;;;;5006493;28;20423;-78
2021/05/07 11:22:05;;;;;;;2.87;1.73;;;8.30;99.90;;;;;;5000601;28;20732;-77
2021/05/07 11:24:33;;;;;;;3.70;2.10;;;7.90;99.90;;;;;;5015323;28;20442;-77
2021/05/07 11:26:59;;;;;;;8.30;2.20;;;7.60;99.90;;;;;;5000989;28;20466;-77
2021/05/07 11:29:33;;;;;;;3.40;2.40;;;7.60;99.90;;;;;;5002820;28;20435;-77
2021/05/07 11:32:17;;;;;;;2.87;2.17;;;8.10;99.90;;;;;;5015902;28;20450;-77
2021/05/07 11:34:51;;;;;;;3.20;2.23;;;8.10;99.90;;;;;;5020007;28;20420;-77
2021/05/07 11:37:16;;;;;;;2.80;1.70;;;8.20;99.90;;;;;;5020061;28;20462;-77
2021/05/07 11:39:42;;;;;;;1.60;1.43;;;8.00;99.90;;;;;;5021742;28;20411;-78
2021/05/07 11:42:08;;;;;;;1.87;1.77;;;8.10;99.90;;;;;;5016213;28;20188;-79
2021/05/07 11:44:33;;;;;;;2.80;1.90;;;8.60;99.90;;;;;;5018422;28;20168;-79
2021/05/07 11:47:06;;;;;;;3.10;2.37;;;8.90;99.90;;;;;;5016658;28;20514;-77
2021/05/07 11:49:33;;;;;;;3.20;1.80;;;8.90;99.90;;;;;;5001426;28;20636;-78
2021/05/07 11:51:58;;;;;;;5.90;2.10;;;9.00;99.90;;;;;;5013022;28;20478;-78
2021/05/07 11:54:24;;;;;;;5.50;3.03;;;9.10;99.90;;;;;;5016254;28;20861;-78
2021/05/07 11:56:55;;;;;;;2.57;1.87;;;9.10;99.90;;;;;;5014910;28;20183;-78
2021/05/07 11:59:21;;;;;;;4.90;2.17;;;8.90;99.90;;;;;;5018303;28;20187;-78
2021/05/07 12:01:50;;;;;;;3.27;2.07;;;8.60;99.90;;;;;;5016602;28;21107;-79
2021/05/07 12:04:15;;;;;;;2.40;2.20;;;8.80;99.90;;;;;;5016396;28;20188;-77
2021/05/07 12:06:44;;;;;;;2.40;1.77;;;8.80;99.90;;;;;;5013588;28;20469;-78
2021/05/07 12:09:12;;;;;;;6.80;2.53;;;8.60;99.90;;;;;;5013321;28;20203;-77
2021/05/07 12:11:38;;;;;;;2.03;1.83;;;9.20;99.90;;;;;;5013511;28;20455;-77
2021/05/07 12:14:14;;;;;;;2.00;1.90;;;9.50;99.90;;;;;;5013531;28;20411;-77
2021/05/07 12:16:40;;;;;;;3.37;1.70;;;9.40;99.90;;;;;;5013756;28;20420;-78
2021/05/07 12:19:06;;;;;;;4.00;1.80;;;9.30;99.90;;;;;;5007856;28;20464;-78
2021/05/07 12:21:42;;;;;;;3.27;1.57;;;8.60;99.90;;;;;;5001059;28;20420;-78
2021/05/07 12:24:10;;;;;;;1.87;1.77;;;8.50;99.90;;;;;;4994055;28;20408;-78
2021/05/07 12:26:46;;;;;;;2.07;1.80;;;8.00;99.90;;;;;;5013610;28;20426;-77
2021/05/07 12:29:12;;;;;;;2.20;1.67;;;7.60;99.90;;;;;;5020756;28;20411;-78
2021/05/07 12:31:37;;;;;;;2.47;1.60;;;7.40;99.90;;;;;;5019017;28;20450;-77
2021/05/07 12:34:15;;;;;;;2.60;2.30;;;7.20;99.90;;;;;;4997865;28;20550;-77
2021/05/07 12:36:41;;;;;;;3.37;1.90;;;7.40;99.90;;;;;;5006360;28;20169;-77
2021/05/07 12:39:10;;;;;;;1.80;1.70;;;8.00;99.90;;;;;;5004156;28;20502;-77
2021/05/07 12:41:36;;;;;;;1.40;1.30;;;8.50;99.90;;;;;;5014350;28;20470;-78
2021/05/07 12:44:01;;;;;;;2.57;1.70;;;8.30;99.90;;;;;;5014188;28;20906;-78
2021/05/07 12:46:27;;;;;;;1.60;1.50;;;7.90;99.90;;;;;;5013109;28;20195;-78
2021/05/07 12:48:54;;;;;;;1.73;1.53;;;8.20;99.90;;;;;;5015905;28;20187;-78
2021/05/07 12:51:21;;;;;;;2.00;1.80;;;8.50;99.90;;;;;;5019779;28;20331;-78
2021/05/07 12:53:47;;;;;;;6.13;4.50;;;8.40;99.90;;;;;;5001186;28;20458;-78
2021/05/07 12:56:17;;;;;;;16.17;9.63;;;8.50;99.90;;;;;;5017754;28;20412;-78